sensor_id;sensor_type;location;lat;lon;timestamp;temperature;humidity
75372;HTU21D;63956;52.006;5.878;2022-11-15T14:59:13;10.73;77.89
75372;HTU21D;63956;52.006;5.878;2022-11-15T15:01:43;11.11;77.10
75372;HTU21D;63956;52.006;5.878;2022-11-15T15:04:12;11.55;76.21
75372;HTU21D;63956;52.006;5.878;2022-11-15T15:06:41;11.92;75.11
75372;HTU21D;63956;52.006;5.878;2022-11-15T15:09:10;12.27;74.33
75372;HTU21D;63956;52.006;5.878;2022-11-15T15:11:39;12.53;72.95
75372;HTU21D;63956;52.006;5.878;2022-11-15T15:14:08;12.74;72.78
75372;HTU21D;63956;52.006;5.878;2022-11-15T15:16:40;12.93;72.51
75372;HTU21D;63956;52.006;5.878;2022-11-15T15:19:09;13.05;71.71
75372;HTU21D;63956;52.006;5.878;2022-11-15T15:21:38;13.12;71.25
75372;HTU21D;63956;52.006;5.878;2022-11-15T15:24:08;13.22;70.82
75372;HTU21D;63956;52.006;5.878;2022-11-15T15:26:42;13.31;70.38
75372;HTU21D;63956;52.006;5.878;2022-11-15T15:29:11;13.44;71.84
75372;HTU21D;63956;52.006;5.878;2022-11-15T15:31:42;13.45;69.76
75372;HTU21D;63956;52.006;5.878;2022-11-15T15:34:11;13.45;69.45
75372;HTU21D;63956;52.006;5.878;2022-11-15T15:36:41;13.49;68.74
75372;HTU21D;63956;52.006;5.878;2022-11-15T15:39:09;13.60;70.51
75372;HTU21D;63956;52.006;5.878;2022-11-15T15:41:38;13.59;68.06
75372;HTU21D;63956;52.006;5.878;2022-11-15T15:44:08;13.63;67.07
75372;HTU21D;63956;52.006;5.878;2022-11-15T15:46:37;13.67;67.51
75372;HTU21D;63956;52.006;5.878;2022-11-15T15:49:10;13.76;69.16
75372;HTU21D;63956;52.006;5.878;2022-11-15T15:51:39;13.73;67.33
75372;HTU21D;63956;52.006;5.878;2022-11-15T15:54:08;13.80;68.91
75372;HTU21D;63956;52.006;5.878;2022-11-15T15:56:37;13.75;66.82
75372;HTU21D;63956;52.006;5.878;2022-11-15T15:59:06;13.73;67.21
75372;HTU21D;63956;52.006;5.878;2022-11-15T16:01:35;13.80;68.31
75372;HTU21D;63956;52.006;5.878;2022-11-15T16:04:04;13.76;66.30
75372;HTU21D;63956;52.006;5.878;2022-11-15T16:06:39;13.84;67.88
75372;HTU21D;63956;52.006;5.878;2022-11-15T16:09:13;13.83;66.65
75372;HTU21D;63956;52.006;5.878;2022-11-15T16:11:43;13.82;66.75
75372;HTU21D;63956;52.006;5.878;2022-11-15T16:14:13;13.83;66.44
75372;HTU21D;63956;52.006;5.878;2022-11-15T16:16:42;13.91;67.43
75372;HTU21D;63956;52.006;5.878;2022-11-15T16:19:11;13.91;66.39
75372;HTU21D;63956;52.006;5.878;2022-11-15T16:21:43;13.92;66.14
75372;HTU21D;63956;52.006;5.878;2022-11-15T16:24:12;13.92;65.33
75372;HTU21D;63956;52.006;5.878;2022-11-15T16:26:41;14.00;66.67
75372;HTU21D;63956;52.006;5.878;2022-11-15T16:29:10;13.98;65.58
75372;HTU21D;63956;52.006;5.878;2022-11-15T16:31:39;13.99;65.66
75372;HTU21D;63956;52.006;5.878;2022-11-15T16:34:08;14.01;65.40
75372;HTU21D;63956;52.006;5.878;2022-11-15T16:36:38;14.05;65.41
75372;HTU21D;63956;52.006;5.878;2022-11-15T16:39:11;14.09;65.06
75372;HTU21D;63956;52.006;5.878;2022-11-15T16:41:44;14.10;64.94
75372;HTU21D;63956;52.006;5.878;2022-11-15T16:44:13;14.11;64.27
75372;HTU21D;63956;52.006;5.878;2022-11-15T16:46:43;14.10;64.61
75372;HTU21D;63956;52.006;5.878;2022-11-15T16:49:17;14.13;64.54
75372;HTU21D;63956;52.006;5.878;2022-11-15T16:51:48;14.18;64.43
75372;HTU21D;63956;52.006;5.878;2022-11-15T16:54:20;14.21;64.83
75372;HTU21D;63956;52.006;5.878;2022-11-15T16:56:49;14.21;64.82
75372;HTU21D;63956;52.006;5.878;2022-11-15T16:59:18;14.29;65.21
75372;HTU21D;63956;52.006;5.878;2022-11-15T17:01:47;14.26;64.44
75372;HTU21D;63956;52.006;5.878;2022-11-15T17:04:19;14.25;64.53
75372;HTU21D;63956;52.006;5.878;2022-11-15T17:06:48;14.25;64.16
75372;HTU21D;63956;52.006;5.878;2022-11-15T17:09:21;14.26;64.08
75372;HTU21D;63956;52.006;5.878;2022-11-15T17:11:51;14.29;64.09
75372;HTU21D;63956;52.006;5.878;2022-11-15T17:14:21;14.30;63.87
75372;HTU21D;63956;52.006;5.878;2022-11-15T17:16:50;14.32;64.18
75372;HTU21D;63956;52.006;5.878;2022-11-15T17:19:20;14.35;64.21
75372;HTU21D;63956;52.006;5.878;2022-11-15T17:21:49;14.38;64.17
75372;HTU21D;63956;52.006;5.878;2022-11-15T17:24:21;14.40;63.82
75372;HTU21D;63956;52.006;5.878;2022-11-15T17:26:51;14.41;63.98
75372;HTU21D;63956;52.006;5.878;2022-11-15T17:29:20;14.42;64.08
75372;HTU21D;63956;52.006;5.878;2022-11-15T17:31:49;14.42;64.08
75372;HTU21D;63956;52.006;5.878;2022-11-15T17:34:18;14.49;64.53
75372;HTU21D;63956;52.006;5.878;2022-11-15T17:36:47;14.47;64.29
75372;HTU21D;63956;52.006;5.878;2022-11-15T17:39:16;14.44;64.49
75372;HTU21D;63956;52.006;5.878;2022-11-15T17:41:49;14.45;64.40
75372;HTU21D;63956;52.006;5.878;2022-11-15T17:44:18;14.45;64.75
75372;HTU21D;63956;52.006;5.878;2022-11-15T17:46:47;14.43;64.92
75372;HTU21D;63956;52.006;5.878;2022-11-15T17:49:16;14.42;64.95
75372;HTU21D;63956;52.006;5.878;2022-11-15T17:51:45;14.42;65.04
75372;HTU21D;63956;52.006;5.878;2022-11-15T17:54:14;14.40;65.00
75372;HTU21D;63956;52.006;5.878;2022-11-15T17:56:43;14.39;64.88
75372;HTU21D;63956;52.006;5.878;2022-11-15T17:59:15;14.41;64.94
75372;HTU21D;63956;52.006;5.878;2022-11-15T18:01:44;14.41;65.14
75372;HTU21D;63956;52.006;5.878;2022-11-15T18:04:15;14.43;65.46
75372;HTU21D;63956;52.006;5.878;2022-11-15T18:06:44;14.45;65.46
75372;HTU21D;63956;52.006;5.878;2022-11-15T18:09:16;14.44;65.62
75372;HTU21D;63956;52.006;5.878;2022-11-15T18:11:47;14.41;65.57
75372;HTU21D;63956;52.006;5.878;2022-11-15T18:14:19;14.43;65.61
75372;HTU21D;63956;52.006;5.878;2022-11-15T18:16:50;14.42;65.75
75372;HTU21D;63956;52.006;5.878;2022-11-15T18:19:20;14.43;65.97
75372;HTU21D;63956;52.006;5.878;2022-11-15T18:21:49;14.41;66.17
75372;HTU21D;63956;52.006;5.878;2022-11-15T18:24:27;14.39;66.34
75372;HTU21D;63956;52.006;5.878;2022-11-15T18:26:58;14.37;66.91
75372;HTU21D;63956;52.006;5.878;2022-11-15T18:29:30;14.35;66.89
75372;HTU21D;63956;52.006;5.878;2022-11-15T18:32:03;14.32;67.22
75372;HTU21D;63956;52.006;5.878;2022-11-15T18:34:37;14.26;67.56
75372;HTU21D;63956;52.006;5.878;2022-11-15T18:37:06;14.24;67.68
75372;HTU21D;63956;52.006;5.878;2022-11-15T18:39:36;14.23;67.78
75372;HTU21D;63956;52.006;5.878;2022-11-15T18:42:05;14.22;67.82
75372;HTU21D;63956;52.006;5.878;2022-11-15T18:44:36;14.22;67.84
75372;HTU21D;63956;52.006;5.878;2022-11-15T18:47:06;14.20;67.99
75372;HTU21D;63956;52.006;5.878;2022-11-15T18:49:35;14.17;68.30
75372;HTU21D;63956;52.006;5.878;2022-11-15T18:52:04;14.17;68.36
75372;HTU21D;63956;52.006;5.878;2022-11-15T18:54:33;14.15;68.58
75372;HTU21D;63956;52.006;5.878;2022-11-15T18:57:02;14.13;68.66
75372;HTU21D;63956;52.006;5.878;2022-11-15T18:59:31;14.12;68.81
75372;HTU21D;63956;52.006;5.878;2022-11-15T19:02:03;14.14;68.97
75372;HTU21D;63956;52.006;5.878;2022-11-15T19:04:32;14.10;69.05
75372;HTU21D;63956;52.006;5.878;2022-11-15T19:07:02;14.07;69.31
75372;HTU21D;63956;52.006;5.878;2022-11-15T19:09:32;14.05;69.38
75372;HTU21D;63956;52.006;5.878;2022-11-15T19:12:01;14.03;69.36
75372;HTU21D;63956;52.006;5.878;2022-11-15T19:14:30;14.01;69.82
75372;HTU21D;63956;52.006;5.878;2022-11-15T19:17:02;13.98;70.20
75372;HTU21D;63956;52.006;5.878;2022-11-15T19:19:31;13.96;70.27
75372;HTU21D;63956;52.006;5.878;2022-11-15T19:22:01;13.93;70.35
75372;HTU21D;63956;52.006;5.878;2022-11-15T19:24:30;13.92;70.51
75372;HTU21D;63956;52.006;5.878;2022-11-15T19:27:00;13.91;70.80
75372;HTU21D;63956;52.006;5.878;2022-11-15T19:29:29;13.89;70.85
75372;HTU21D;63956;52.006;5.878;2022-11-15T19:31:58;13.89;70.78
75372;HTU21D;63956;52.006;5.878;2022-11-15T19:34:31;13.88;71.04
75372;HTU21D;63956;52.006;5.878;2022-11-15T19:37:00;13.89;70.97
75372;HTU21D;63956;52.006;5.878;2022-11-15T19:39:30;13.92;71.00
75372;HTU21D;63956;52.006;5.878;2022-11-15T19:41:59;13.91;70.91
75372;HTU21D;63956;52.006;5.878;2022-11-15T19:44:28;13.91;71.15
75372;HTU21D;63956;52.006;5.878;2022-11-15T19:46:57;13.90;71.39
75372;HTU21D;63956;52.006;5.878;2022-11-15T19:49:26;13.89;71.30
75372;HTU21D;63956;52.006;5.878;2022-11-15T19:51:58;13.91;71.51
75372;HTU21D;63956;52.006;5.878;2022-11-15T19:54:27;13.91;71.61
75372;HTU21D;63956;52.006;5.878;2022-11-15T19:56:56;13.88;71.47
75372;HTU21D;63956;52.006;5.878;2022-11-15T19:59:25;13.93;71.12
75372;HTU21D;63956;52.006;5.878;2022-11-15T20:01:54;13.88;71.36
75372;HTU21D;63956;52.006;5.878;2022-11-15T20:04:23;13.86;71.47
75372;HTU21D;63956;52.006;5.878;2022-11-15T20:06:52;13.86;71.79
75372;HTU21D;63956;52.006;5.878;2022-11-15T20:09:24;13.88;71.91
75372;HTU21D;63956;52.006;5.878;2022-11-15T20:11:53;13.90;71.96
75372;HTU21D;63956;52.006;5.878;2022-11-15T20:14:23;13.88;72.23
75372;HTU21D;63956;52.006;5.878;2022-11-15T20:16:54;13.88;72.10
75372;HTU21D;63956;52.006;5.878;2022-11-15T20:19:23;13.89;72.25
75372;HTU21D;63956;52.006;5.878;2022-11-15T20:21:52;13.91;72.31
75372;HTU21D;63956;52.006;5.878;2022-11-15T20:24:24;13.92;72.44
75372;HTU21D;63956;52.006;5.878;2022-11-15T20:26:54;13.90;72.37
75372;HTU21D;63956;52.006;5.878;2022-11-15T20:29:23;13.93;72.39
75372;HTU21D;63956;52.006;5.878;2022-11-15T20:31:52;13.93;72.60
75372;HTU21D;63956;52.006;5.878;2022-11-15T20:34:21;13.92;72.67
75372;HTU21D;63956;52.006;5.878;2022-11-15T20:36:50;13.91;72.85
75372;HTU21D;63956;52.006;5.878;2022-11-15T20:39:19;13.91;72.87
75372;HTU21D;63956;52.006;5.878;2022-11-15T20:41:51;13.92;72.80
75372;HTU21D;63956;52.006;5.878;2022-11-15T20:44:20;13.92;72.87
75372;HTU21D;63956;52.006;5.878;2022-11-15T20:46:49;13.92;72.93
75372;HTU21D;63956;52.006;5.878;2022-11-15T20:49:18;13.91;72.82
75372;HTU21D;63956;52.006;5.878;2022-11-15T20:51:47;13.96;72.54
75372;HTU21D;63956;52.006;5.878;2022-11-15T20:54:16;13.91;72.96
75372;HTU21D;63956;52.006;5.878;2022-11-15T20:56:45;13.89;73.25
75372;HTU21D;63956;52.006;5.878;2022-11-15T20:59:17;13.88;73.22
75372;HTU21D;63956;52.006;5.878;2022-11-15T21:01:46;13.85;73.27
75372;HTU21D;63956;52.006;5.878;2022-11-15T21:04:15;13.92;72.84
75372;HTU21D;63956;52.006;5.878;2022-11-15T21:06:44;13.88;73.07
75372;HTU21D;63956;52.006;5.878;2022-11-15T21:09:13;13.86;72.88
75372;HTU21D;63956;52.006;5.878;2022-11-15T21:11:55;13.82;73.25
75372;HTU21D;63956;52.006;5.878;2022-11-15T21:14:42;13.81;73.32
75372;HTU21D;63956;52.006;5.878;2022-11-15T21:17:14;13.81;73.55
75372;HTU21D;63956;52.006;5.878;2022-11-15T21:19:43;13.82;73.61
75372;HTU21D;63956;52.006;5.878;2022-11-15T21:22:12;13.92;73.03
75372;HTU21D;63956;52.006;5.878;2022-11-15T21:24:42;13.89;73.28
75372;HTU21D;63956;52.006;5.878;2022-11-15T21:27:11;13.86;73.41
75372;HTU21D;63956;52.006;5.878;2022-11-15T21:29:43;13.88;73.51
75372;HTU21D;63956;52.006;5.878;2022-11-15T21:32:12;13.90;73.38
75372;HTU21D;63956;52.006;5.878;2022-11-15T21:34:42;13.93;73.30
75372;HTU21D;63956;52.006;5.878;2022-11-15T21:37:11;13.96;73.40
75372;HTU21D;63956;52.006;5.878;2022-11-15T21:39:40;14.00;72.98
75372;HTU21D;63956;52.006;5.878;2022-11-15T21:42:09;13.97;73.32
75372;HTU21D;63956;52.006;5.878;2022-11-15T21:44:38;14.03;72.93
75372;HTU21D;63956;52.006;5.878;2022-11-15T21:47:10;14.00;73.22
75372;HTU21D;63956;52.006;5.878;2022-11-15T21:49:39;13.94;73.30
75372;HTU21D;63956;52.006;5.878;2022-11-15T21:52:08;13.99;73.09
75372;HTU21D;63956;52.006;5.878;2022-11-15T21:54:37;13.95;73.30
75372;HTU21D;63956;52.006;5.878;2022-11-15T21:57:09;13.94;73.35
75372;HTU21D;63956;52.006;5.878;2022-11-15T21:59:38;13.95;73.59
75372;HTU21D;63956;52.006;5.878;2022-11-15T22:02:30;13.99;73.43
75372;HTU21D;63956;52.006;5.878;2022-11-15T22:04:56;13.99;73.48
75372;HTU21D;63956;52.006;5.878;2022-11-15T22:07:25;14.00;73.54
75372;HTU21D;63956;52.006;5.878;2022-11-15T22:09:55;14.00;73.65
75372;HTU21D;63956;52.006;5.878;2022-11-15T22:12:24;14.00;73.78
75372;HTU21D;63956;52.006;5.878;2022-11-15T22:14:53;14.00;73.69
75372;HTU21D;63956;52.006;5.878;2022-11-15T22:17:22;14.05;73.38
75372;HTU21D;63956;52.006;5.878;2022-11-15T22:20:14;14.06;73.54
75372;HTU21D;63956;52.006;5.878;2022-11-15T22:22:43;14.05;73.61
75372;HTU21D;63956;52.006;5.878;2022-11-15T22:25:13;14.07;73.43
75372;HTU21D;63956;52.006;5.878;2022-11-15T22:27:42;14.08;73.54
75372;HTU21D;63956;52.006;5.878;2022-11-15T22:30:11;14.10;73.51
75372;HTU21D;63956;52.006;5.878;2022-11-15T22:32:41;14.08;73.54
75372;HTU21D;63956;52.006;5.878;2022-11-15T22:35:13;14.07;73.70
75372;HTU21D;63956;52.006;5.878;2022-11-15T22:37:42;14.11;73.63
75372;HTU21D;63956;52.006;5.878;2022-11-15T22:40:11;14.10;73.64
75372;HTU21D;63956;52.006;5.878;2022-11-15T22:42:40;14.10;73.67
75372;HTU21D;63956;52.006;5.878;2022-11-15T22:45:09;14.17;73.40
75372;HTU21D;63956;52.006;5.878;2022-11-15T22:47:38;14.12;73.48
75372;HTU21D;63956;52.006;5.878;2022-11-15T22:50:08;14.10;73.78
75372;HTU21D;63956;52.006;5.878;2022-11-15T22:52:40;14.13;73.70
75372;HTU21D;63956;52.006;5.878;2022-11-15T22:55:09;14.12;73.59
75372;HTU21D;63956;52.006;5.878;2022-11-15T22:57:38;14.13;73.64
75372;HTU21D;63956;52.006;5.878;2022-11-15T23:00:11;14.12;73.70
75372;HTU21D;63956;52.006;5.878;2022-11-15T23:02:40;14.11;73.79
75372;HTU21D;63956;52.006;5.878;2022-11-15T23:05:09;14.10;73.86
75372;HTU21D;63956;52.006;5.878;2022-11-15T23:07:43;14.10;73.80
75372;HTU21D;63956;52.006;5.878;2022-11-15T23:10:12;14.11;73.91
75372;HTU21D;63956;52.006;5.878;2022-11-15T23:12:53;14.15;73.77
75372;HTU21D;63956;52.006;5.878;2022-11-15T23:15:34;14.20;73.49
75372;HTU21D;63956;52.006;5.878;2022-11-15T23:18:16;14.17;73.59
75372;HTU21D;63956;52.006;5.878;2022-11-15T23:20:45;14.12;73.95
75372;HTU21D;63956;52.006;5.878;2022-11-15T23:23:17;14.13;74.01
75372;HTU21D;63956;52.006;5.878;2022-11-15T23:25:43;14.13;73.99
75372;HTU21D;63956;52.006;5.878;2022-11-15T23:28:13;14.11;74.18
75372;HTU21D;63956;52.006;5.878;2022-11-15T23:30:42;14.12;74.21
75372;HTU21D;63956;52.006;5.878;2022-11-15T23:33:32;14.17;74.04
75372;HTU21D;63956;52.006;5.878;2022-11-15T23:36:13;14.15;73.93
75372;HTU21D;63956;52.006;5.878;2022-11-15T23:38:45;14.18;74.01
75372;HTU21D;63956;52.006;5.878;2022-11-15T23:41:15;14.20;73.99
75372;HTU21D;63956;52.006;5.878;2022-11-15T23:43:44;14.19;73.90
75372;HTU21D;63956;52.006;5.878;2022-11-15T23:46:13;14.20;74.04
75372;HTU21D;63956;52.006;5.878;2022-11-15T23:48:42;14.22;74.02
75372;HTU21D;63956;52.006;5.878;2022-11-15T23:51:11;14.22;73.88
75372;HTU21D;63956;52.006;5.878;2022-11-15T23:53:41;14.21;74.08
75372;HTU21D;63956;52.006;5.878;2022-11-15T23:56:13;14.22;73.99
75372;HTU21D;63956;52.006;5.878;2022-11-15T23:58:44;14.21;74.12
